Aviation Digital Data Service (ADDS)

Output produced by METARs form (1035 UTC 07 December 2022)
found at http://www.aviationweather.gov/metar/data/
 
KLUL 071015Z AUTO 17003KT 4SM HZ OVC003 20/ A3022 RMK A02 T0196////
KLUL 070955Z AUTO 18003KT 4SM BR OVC003 20/ A3022 RMK A02 T0196////
KLUL 070935Z AUTO 17003KT 3 1/2SM BR OVC003 19/ A3022 RMK A02 T0195////
KLUL 070915Z AUTO 19003KT 5SM HZ OVC003 20/ A3022 RMK A02 T0196////
KLUL 070855Z AUTO 21005KT 7SM HZ OVC003 20/ A3022 RMK A02 T0197////
KLUL 070835Z AUTO 20003KT 7SM OVC003 19/ A3021 RMK A02 T0195////
KLUL 070815Z AUTO 19005KT 7SM BKN003 OVC007 19/ A3020 RMK A02 T0194////
KLUL 070755Z AUTO 20004KT 7SM BKN003 BKN011 OVC018 19/ A3020 RMK A02 T0193////
KLUL 070735Z AUTO 18004KT 7SM HZ BKN005 BKN011 OVC018 19/ A3019 RMK A02 T0192////
KLUL 070715Z AUTO 18004KT 10SM SCT003 SCT009 BKN016 19/ A3019 RMK A02 T0193////
KLUL 070655Z AUTO 18004KT 10SM SCT011 SCT018 SCT023 19/ A3019 RMK A02 T0194////
KLUL 070635Z AUTO 17003KT 10SM BKN011 BKN023 19/ A3019 RMK A02 T0194////
KLUL 070615Z AUTO 17004KT 10SM OVC011 20/ A3018 RMK A02 T0195////
KLUL 070555Z AUTO 17004KT 10SM BKN011 OVC031 20/ A3019 RMK A02 T0197//// 10231 20195
KLUL 070535Z AUTO 17003KT 10SM SCT013 SCT031 BKN037 20/ A3018 RMK A02 T0196////
KLUL 070515Z AUTO 16003KT 10SM SCT033 20/20 A3018 RMK A02 T0198////
KLUL 070455Z AUTO 18004KT 10SM CLR 20/20 A3018 RMK A02 T02010201
KLUL 070435Z AUTO 18004KT 10SM CLR 20/20 A3017 RMK A02 T02030201
KLUL 070415Z AUTO 20006KT 10SM CLR 21/20 A3016 RMK A02 T02050201
KLUL 070355Z AUTO 18006KT 10SM CLR 21/20 A3015 RMK A02 T02070201
KLUL 070335Z AUTO 18005KT 10SM CLR 21/20 A3014 RMK A02 T02090201
KLUL 070315Z AUTO 18006KT 10SM SCT035 SCT040 SCT048 21/20 A3014 RMK A02 T02110201
KLUL 070255Z AUTO 19006KT 10SM SCT035 BKN048 21/20 A3014 RMK A02 T02120200
KLUL 070235Z AUTO 17008KT 10SM BKN048 21/20 A3013 RMK A02 T02130200
KLUL 070215Z AUTO 17007KT 10SM SCT048 SCT060 21/20 A3013 RMK A02 T02140199
KLUL 070155Z AUTO 17006KT 10SM SCT060 22/20 A3013 RMK A02 T02170198
KLUL 070135Z AUTO 18006KT 10SM CLR 22/20 A3012 RMK A02 T02180196
KLUL 070115Z AUTO 20005KT 10SM CLR 22/19 A3012 RMK A02 T02210194
KLUL 070055Z AUTO 18007KT 10SM CLR 22/19 A3011 RMK A02 T02230192
KLUL 070035Z AUTO 19007KT 10SM CLR 22/19 A3010 RMK A02 T02250188
KLUL 070015Z AUTO 17007KT 10SM CLR 23/18 A3010 RMK A02 T02270184
KLUL 062355Z AUTO 18007KT 10SM CLR 23/18 A3009 RMK A02 T02300180 10275 20230 402750194
KLUL 062335Z AUTO 17005KT 10SM CLR 23/18 A3009 RMK A02 T02350177
KLUL 062315Z AUTO 17005KT 10SM CLR 24/17 A3008 RMK A02 T02410173
KLUL 062255Z AUTO 18006KT 10SM CLR 25/17 A3008 RMK A02 T02460172
KLUL 062235Z AUTO 16005KT 7SM HZ SCT065 25/17 A3008 RMK A02 T02520171
KLUL 062215Z AUTO 18006KT 10SM SCT065 26/17 A3007 RMK A02 T02560167
KLUL 062155Z AUTO 18006KT 10SM SCT065 26/17 A3007 RMK A02 T02590165
KLUL 062135Z AUTO 20009KT 10SM SCT042 SCT050 BKN065 26/16 A3007 RMK A02 T02640164
KLUL 062115Z AUTO 22007KT 10SM SCT042 BKN055 26/17 A3006 RMK A02 T02640165
KLUL 062055Z AUTO 18011KT 10SM SCT042 SCT065 27/17 A3006 RMK A02 T02680165
KLUL 062035Z AUTO 18009KT 10SM SCT065 27/17 A3006 RMK A02 T02660168
KLUL 062015Z AUTO 20008KT 10SM SCT040 SCT047 BKN065 26/17 A3006 RMK A02 T02630166
KLUL 061955Z AUTO 22008KT 10SM SCT041 BKN047 BKN055 26/17 A3006 RMK A02 T02620165
KLUL 061935Z AUTO 23009KT 10SM BKN041 OVC055 26/17 A3007 RMK A02 T02600165
KLUL 061915Z AUTO 24008KT 10SM SCT039 SCT046 OVC055 26/16 A3007 RMK A02 T02590164
KLUL 061855Z AUTO 21015G19KT 10SM SCT050 SCT060 26/16 A3007 RMK A02 T02630160
KLUL 061835Z AUTO 22014KT 10SM SCT060 26/17 A3008 RMK A02 T02640171
KLUL 061815Z AUTO 20009KT 10SM SCT050 26/18 A3008 RMK A02 T02580179
KLUL 061755Z AUTO 22010KT 10SM SCT050 25/18 A3009 RMK A02 T02530182 10258 20194
KLUL 061735Z AUTO 19011G15KT 10SM CLR 25/18 A3009 RMK A02 T02540185
KLUL 061715Z AUTO 20011KT 10SM SCT021 SCT027 SCT033 25/19 A3010 RMK A02 T02510189
KLUL 061655Z AUTO 20014KT 10SM BKN021 BKN026 BKN035 25/19 A3011 RMK A02 T02450192
KLUL 061635Z AUTO 21007KT 10SM SCT019 BKN024 BKN033 24/20 A3012 RMK A02 T02390196
KLUL 061615Z AUTO 20008G15KT 10SM BKN014 BKN021 OVC026 23/20 A3012 RMK A02 T02320200
KLUL 061555Z AUTO 19008KT 170V230 10SM BKN012 OVC020 23/20 A3012 RMK A02 T02310203
KLUL 061535Z AUTO 20005KT 10SM OVC012 22/21 A3012 RMK A02 T02200208
KLUL 061515Z AUTO 18006KT 10SM OVC010 22/21 A3012 RMK A02 T02170208
KLUL 061455Z AUTO 18006KT 10SM BKN010 OVC017 21/21 A3011 RMK A02 T02140206
KLUL 061435Z AUTO 19008KT 10SM BKN010 OVC016 21/21 A3011 RMK A02 T02100205
KLUL 061415Z AUTO 17008KT 10SM BKN010 OVC014 21/21 A3010 RMK A02 T02080206
KLUL 061355Z AUTO 16005KT 10SM OVC010 21/ A3010 RMK A02 T0205////
KLUL 061335Z AUTO 15004KT 7SM OVC012 20/ A3009 RMK A02 T0202////
KLUL 061315Z AUTO 16004KT 7SM HZ BKN013 OVC019 20/ A3008 RMK A02 T0200////
KLUL 061255Z AUTO 16006KT 7SM HZ BKN016 OVC023 20/ A3007 RMK A02 T0198////
KLUL 061215Z AUTO 14003KT 7SM SCT018 BKN026 OVC035 19/ A3007 RMK A02 T0194////
KLUL 061155Z AUTO 14003KT 10SM SCT010 BKN018 OVC033 20/ A3007 RMK A02 T0196//// 10202 20195
KLUL 061135Z AUTO 16004KT 10SM BKN016 BKN024 OVC033 20/ A3006 RMK A02 T0197////
KLUL 061115Z AUTO 16004KT 10SM BKN016 BKN024 OVC050 20/ A3005 RMK A02 T0197////
KLUL 061055Z AUTO 16005KT 10SM BKN010 BKN017 OVC024 20/ A3004 RMK A02 T0197////
KLUL 061035Z AUTO 17004KT 10SM OVC010 20/ A3004 RMK A02 T0198////
KLUL 061015Z AUTO 17004KT 10SM BKN010 OVC018 20/ A3004 RMK A02 T0198////
KLUL 060955Z AUTO 16005KT 10SM BKN010 OVC019 20/ A3003 RMK A02 T0199////
KLUL 060935Z AUTO 16003KT 10SM OVC008 20/ A3004 RMK A02 T0199////
KLUL 060915Z AUTO 00000KT 10SM OVC008 20/ A3004 RMK A02 T0198////
KLUL 060855Z AUTO 17003KT 10SM OVC008 20/20 A3003 RMK A02 T0199////
KLUL 060835Z AUTO 18003KT 10SM OVC008 20/20 A3003 RMK A02 T01990199
KLUL 060815Z AUTO 16004KT 10SM BKN010 BKN014 OVC021 20/20 A3003 RMK A02 T01990199
KLUL 060735Z AUTO 18005KT 10SM BKN010 BKN016 OVC023 20/20 A3003 RMK A02 T01990197
KLUL 060715Z AUTO 19006KT 10SM BKN010 OVC016 20/20 A3003 RMK A02 T02000196
KLUL 060655Z AUTO 19006KT 10SM OVC015 20/20 A3002 RMK A02 T02010195
KLUL 060635Z AUTO 18005KT 10SM OVC015 20/19 A3002 RMK A02 T02020195
KLUL 060615Z AUTO 19006KT 10SM OVC013 20/19 A3002 RMK A02 T02010195
KLUL 060555Z AUTO 18006KT 10SM SCT010 OVC015 20/20 A3002 RMK A02 T02000196 10205 20198
KLUL 060535Z AUTO 18006KT 10SM SCT010 OVC018 20/20 A3002 RMK A02 T01990197
KLUL 060515Z AUTO 18007KT 10SM BKN012 OVC018 20/20 A3001 RMK A02 T01990196
KLUL 060455Z AUTO 17005KT 10SM SCT009 OVC016 20/20 A3002 RMK A02 T01990196
KLUL 060435Z AUTO 18005KT 10SM BKN009 OVC016 20/20 A3001 RMK A02 T01990195
KLUL 060415Z AUTO 18006KT 10SM OVC009 20/20 A3001 RMK A02 T02000195
KLUL 060355Z AUTO 19006KT 10SM OVC009 20/20 A3000 RMK A02 T02010196
KLUL 060335Z AUTO 19005KT 10SM OVC009 20/20 A3001 RMK A02 T02020197
KLUL 060315Z AUTO 18006KT 10SM BKN009 OVC060 20/20 A3000 RMK A02 T02010196
KLUL 060255Z AUTO 18009KT 10SM SCT009 OVC060 20/20 A3000 RMK A02 T02000195
KLUL 060235Z AUTO 19010KT 10SM SCT009 OVC060 20/20 A3000 RMK A02 T02010195
KLUL 060215Z AUTO 18008KT 10SM BKN009 BKN070 OVC080 20/19 A3000 RMK A02 T02010195
KLUL 060155Z AUTO 18009KT 10SM SCT065 OVC080 20/19 A3000 RMK A02 T02010194
KLUL 060135Z AUTO 19008KT 10SM SCT065 OVC080 20/19 A3000 RMK A02 T02010193
KLUL 060115Z AUTO 18008KT 10SM SCT010 OVC080 20/19 A3000 RMK A02 T02020193
KLUL 060055Z AUTO 18009KT 10SM OVC080 20/19 A3000 RMK A02 T02020191
KLUL 060035Z AUTO 18007KT 10SM OVC080 20/19 A3000 RMK A02 T02020191
KLUL 060015Z AUTO 18007KT 10SM OVC080 20/19 A3000 RMK A02 T02030192
KLUL 052355Z AUTO 17005KT 10SM OVC080 21/19 A2999 RMK A02 T02060192 10225 20205 402250131
KLUL 052335Z AUTO 19006KT 10SM OVC080 21/19 A2998 RMK A02 T02070190
KLUL 052315Z AUTO 18006KT 10SM SCT023 OVC080 21/19 A2998 RMK A02 T02090187
KLUL 052255Z AUTO 17006KT 10SM SCT023 SCT028 OVC080 21/18 A2998 RMK A02 T02110185
KLUL 052235Z AUTO 17005KT 10SM OVC080 21/18 A2998 RMK A02 T02140183
KLUL 052215Z AUTO 17006KT 10SM BKN026 OVC080 22/18 A2998 RMK A02 T02180180
KLUL 052155Z AUTO 20006KT 10SM BKN026 OVC080 22/18 A2998 RMK A02 T02220177
KLUL 052135Z AUTO 18003KT 10SM OVC080 22/18 A2998 RMK A02 T02220178
KLUL 052115Z AUTO 17006KT 10SM OVC080 22/18 A2998 RMK A02 T02220177
KLUL 052055Z AUTO 19006KT 10SM OVC080 22/17 A2997 RMK A02 T02220174
KLUL 052035Z AUTO 18005KT 10SM OVC070 22/17 A2997 RMK A02 T02190172
KLUL 052015Z AUTO 19008KT 10SM OVC070 22/17 A2998 RMK A02 T02180171
KLUL 051955Z AUTO 19007KT 10SM OVC070 22/17 A2999 RMK A02 T02170169
KLUL 051935Z AUTO 19008KT 10SM OVC070 22/17 A2999 RMK A02 T02170169
KLUL 051915Z AUTO 19006KT 10SM OVC070 22/17 A3000 RMK A02 T02170168
KLUL 051855Z AUTO 19005KT 10SM OVC070 21/17 A3000 RMK A02 T02150168
KLUL 051835Z AUTO 19008KT 10SM OVC070 21/16 A3000 RMK A02 T02140165
KLUL 051815Z AUTO 19006KT 10SM OVC070 21/16 A3001 RMK A02 T02130164
KLUL 051755Z AUTO 21008KT 10SM OVC070 21/16 A3003 RMK A02 T02150163 10217 20148
KLUL 051735Z AUTO 21008KT 10SM OVC070 21/16 A3004 RMK A02 T02120162
KLUL 051715Z AUTO 20007KT 10SM OVC070 22/16 A3004 RMK A02 T02150162
KLUL 051655Z AUTO 19007KT 10SM OVC070 21/16 A3005 RMK A02 T02130164
KLUL 051635Z AUTO 20009G16KT 10SM SCT070 21/16 A3006 RMK A02 T02090163
KLUL 051615Z AUTO 20007KT 10SM SCT010 21/17 A3007 RMK A02 T02060169
KLUL 051555Z AUTO 20009KT 10SM OVC010 19/17 A3007 RMK A02 T01910169
KLUL 051535Z AUTO 20006KT 10SM OVC010 18/17 A3008 RMK A02 T01840172
KLUL 051515Z AUTO 19006KT 10SM OVC008 18/17 A3009 RMK A02 T01810174
KLUL 051455Z AUTO 18006KT 7SM HZ BKN006 OVC011 17/ A3008 RMK A02 T0171////
KLUL 051435Z AUTO 16003KT 5SM HZ OVC006 17/ A3008 RMK A02 T0166////
KLUL 051415Z AUTO 17004KT 3 1/2SM BR OVC006 16/ A3008 RMK A02 T0161////
KLUL 051355Z AUTO 16004KT 3SM BR BKN006 OVC011 16/ A3008 RMK A02 T0160////
KLUL 051335Z AUTO 16003KT 2 1/2SM BR OVC004 16/ A3007 RMK A02 T0157////
KLUL 051315Z AUTO 18003KT 1 3/4SM BR OVC002 16/ A3007 RMK A02 T0156////
KLUL 051255Z AUTO 00000KT 1/4SM FG OVC002 15/ A3007 RMK A02 T0153////
KLUL 051235Z AUTO 00000KT 1/4SM FG OVC002 15/ A3006 RMK A02 T0151////
KLUL 051215Z AUTO 00000KT 1/4SM FG OVC002 15/ A3005 RMK A02 T0149////
KLUL 051155Z AUTO 00000KT 1/4SM FG OVC002 15/ A3005 RMK A02 T0148//// 10149 20143
KLUL 051135Z AUTO 00000KT 1/4SM FG OVC002 15/ A3005 RMK A02 T0148////
KLUL 051115Z AUTO 00000KT 1/4SM FG OVC002 15/ A3005 RMK A02 T0147////
KLUL 051055Z AUTO 00000KT 1/4SM FG OVC002 15/ A3005 RMK A02 T0147////
KLUL 051035Z AUTO 00000KT 1 1/2SM BR OVC004 15/ A3005 RMK A02 T0147////
KLUL 051015Z AUTO 00000KT 4SM HZ OVC004 15/ A3006 RMK A02 T0147////
KLUL 050955Z AUTO 16003KT 7SM BR OVC004 15/15 A3006 RMK A02 T0148////
KLUL 050935Z AUTO 00000KT 10SM OVC004 15/15 A3006 RMK A02 T01470147
KLUL 050915Z AUTO 13003KT 10SM OVC004 15/15 A3007 RMK A02 T01480148
KLUL 050855Z AUTO 00000KT 10SM OVC004 15/15 A3007 RMK A02 T01490147
KLUL 050835Z AUTO 00000KT 10SM OVC004 15/15 A3008 RMK A02 T01490146
KLUL 050815Z AUTO 00000KT 10SM OVC006 15/15 A3008 RMK A02 T01480146
KLUL 050755Z AUTO 00000KT 10SM OVC006 15/15 A3008 RMK A02 T01480146
KLUL 050735Z AUTO 00000KT 10SM OVC006 15/14 A3008 RMK A02 T01460145
KLUL 050715Z AUTO 08003KT 10SM BKN008 OVC013 15/14 A3008 RMK A02 T01460145
KLUL 050655Z AUTO 00000KT 10SM OVC013 14/14 A3009 RMK A02 T01440143
KLUL 050635Z AUTO 00000KT 10SM OVC013 14/14 A3010 RMK A02 T01450144
KLUL 050615Z AUTO 00000KT 10SM OVC017 14/14 A3010 RMK A02 T01430143
KLUL 050555Z AUTO 00000KT 10SM SCT017 BKN023 OVC060 14/14 A3011 RMK A02 T01440142 10157 20131
KLUL 050535Z AUTO 00000KT 10SM BKN023 OVC060 14/14 A3012 RMK A02 T01440142
KLUL 050515Z AUTO 00000KT 10SM BKN023 OVC060 14/14 A3012 RMK A02 T01440143
KLUL 050455Z AUTO 00000KT 10SM SCT023 OVC060 14/14 A3013 RMK A02 T01450142
KLUL 050435Z AUTO 00000KT 10SM SCT025 OVC060 15/14 A3013 RMK A02 T01470142
KLUL 050415Z AUTO 00000KT 10SM OVC060 15/14 A3014 RMK A02 T01460143
KLUL 050355Z AUTO 00000KT 10SM SCT047 OVC060 14/14 A3015 RMK A02 T01440143
KLUL 050335Z AUTO 00000KT 10SM SCT041 SCT047 OVC060 14/14 A3015 RMK A02 T01430141
KLUL 050315Z AUTO 00000KT 10SM SCT031 BKN042 OVC070 14/14 A3016 RMK A02 T01440139
KLUL 050255Z AUTO 00000KT 10SM BKN024 OVC029 14/14 A3016 RMK A02 T01410139
KLUL 050235Z AUTO 00000KT 10SM OVC024 14/14 A3017 RMK A02 T01400140
KLUL 050215Z AUTO 31003KT 10SM OVC026 14/ A3017 RMK A02 T0141////
KLUL 050155Z AUTO 34004KT 10SM BKN026 13/ A3017 RMK A02 T0133////
KLUL 050135Z AUTO 33004KT 10SM CLR 13/13 A3015 RMK A02 T01330133
KLUL 050115Z AUTO 00000KT 10SM CLR 14/14 A3014 RMK A02 T01440139
KLUL 050055Z AUTO 00000KT 10SM CLR 14/13 A3015 RMK A02 T01380135
KLUL 050035Z AUTO 00000KT 10SM CLR 15/14 A3015 RMK A02 T01470138
KLUL 050015Z AUTO 00000KT 10SM CLR 15/14 A3015 RMK A02 T01540138
KLUL 042355Z AUTO 16004KT 10SM CLR 16/14 A3015 RMK A02 T01570137 10186 20149 401960116
KLUL 042335Z AUTO 00000KT 10SM CLR 15/14 A3015 RMK A02 T01500137
KLUL 042315Z AUTO 00000KT 7SM SCT060 16/13 A3016 RMK A02 T01600131
KLUL 042255Z AUTO 09004KT 10SM OVC060 17/13 A3016 RMK A02 T01680131
KLUL 042235Z AUTO 07004KT 10SM OVC060 17/13 A3017 RMK A02 T01730131
KLUL 042215Z AUTO 00000KT 10SM BKN060 18/13 A3017 RMK A02 T01790129
KLUL 042155Z AUTO 06003KT 10SM SCT060 18/13 A3017 RMK A02 T01830129
KLUL 042135Z AUTO 35006KT 10SM OVC060 18/13 A3018 RMK A02 T01830130
KLUL 042115Z AUTO 00000KT 10SM OVC060 18/13 A3017 RMK A02 T01810128
KLUL 042055Z AUTO 00000KT 10SM OVC060 18/13 A3017 RMK A02 T01790127
KLUL 042035Z AUTO 14003KT 10SM SCT023 OVC060 18/12 A3018 RMK A02 T01770124
KLUL 042015Z AUTO 00000KT 10SM BKN021 OVC060 17/12 A3019 RMK A02 T01730124
KLUL 041955Z AUTO 33005KT 10SM BKN019 OVC060 17/12 A3020 RMK A02 T01730124
KLUL 041935Z AUTO 04003KT 10SM OVC050 17/12 A3019 RMK A02 T01710122
KLUL 041915Z AUTO 35003KT 10SM OVC050 16/12 A3020 RMK A02 T01630118
KLUL 041855Z AUTO 07005KT 10SM SCT017 SCT026 OVC050 16/12 A3021 RMK A02 T01610119
KLUL 041835Z AUTO 33007KT 10SM SCT017 BKN026 OVC050 16/12 A3023 RMK A02 T01590117
KLUL 041815Z AUTO 34006KT 10SM SCT031 OVC050 16/12 A3024 RMK A02 T01570119
KLUL 041755Z AUTO 34006KT 10SM OVC048 15/12 A3025 RMK A02 T01530118 10154 20117
KLUL 041735Z AUTO 01004KT 10SM OVC046 15/12 A3025 RMK A02 T01510118
KLUL 041715Z AUTO 34005KT 10SM OVC044 15/12 A3028 RMK A02 T01480117
KLUL 041655Z AUTO 33003KT 10SM OVC044 15/12 A3028 RMK A02 T01480116
KLUL 041635Z AUTO 00000KT 10SM OVC044 15/11 A3029 RMK A02 T01460114
KLUL 041615Z AUTO 29003KT 10SM OVC044 15/12 A3029 RMK A02 T01450115
KLUL 041555Z AUTO 00000KT 10SM OVC044 14/11 A3030 RMK A02 T01420112
KLUL 041535Z AUTO 00000KT 10SM OVC044 14/11 A3030 RMK A02 T01390109
KLUL 041515Z AUTO 00000KT 10SM OVC044 14/11 A3030 RMK A02 T01400109
KLUL 041455Z AUTO 05003KT 10SM OVC044 14/11 A3029 RMK A02 T01350108
KLUL 041435Z AUTO 04003KT 10SM OVC044 13/11 A3030 RMK A02 T01300108
KLUL 041415Z AUTO 01003KT 10SM OVC046 13/11 A3029 RMK A02 T01270110
KLUL 041355Z AUTO 01003KT 10SM SCT035 OVC044 12/11 A3030 RMK A02 T01240111
KLUL 041335Z AUTO 35005KT 10SM SCT035 OVC044 12/11 A3029 RMK A02 T01230112
KLUL 041315Z AUTO 00000KT 10SM OVC045 12/11 A3029 RMK A02 T01220115
KLUL 041255Z AUTO 00000KT 10SM BKN045 12/12 A3028 RMK A02 T01200116
KLUL 041235Z AUTO 00000KT 10SM SCT045 12/11 A3028 RMK A02 T01180111
KLUL 041215Z AUTO 01004KT 10SM SCT029 BKN047 12/11 A3027 RMK A02 T01190112
KLUL 041155Z AUTO 34004KT 10SM OVC047 12/12 A3027 RMK A02 T01200120 10164 20116 70005
KLUL 041135Z AUTO 01003KT 10SM SCT030 BKN047 12/12 A3026 RMK A02 T01230122
KLUL 041115Z AUTO 33005KT 10SM SCT030 12/ A3026 RMK A02 T0118////
KLUL 041055Z AUTO 31004KT 10SM SCT007 12/12 A3026 RMK A02 T01230121